地図

経路データ

SID SEASON NUMBER BASIN SUBBASIN NAME ISO_TIME NATURE LAT LON WMO_WIND WMO_PRES WMO_AGENCY TRACK_TYPE DIST2LAND LANDFALL IFLAG USA_AGENCY USA_ATCF_ID USA_LAT USA_LON USA_RECORD USA_STATUS USA_WIND USA_PRES USA_SSHS USA_R34_NE USA_R34_SE USA_R34_SW USA_R34_NW USA_R50_NE USA_R50_SE USA_R50_SW USA_R50_NW USA_R64_NE USA_R64_SE USA_R64_SW USA_R64_NW USA_POCI USA_ROCI USA_RMW USA_EYE TOKYO_LAT TOKYO_LON TOKYO_GRADE TOKYO_WIND TOKYO_PRES TOKYO_R50_DIR TOKYO_R50_LONG TOKYO_R50_SHORT TOKYO_R30_DIR TOKYO_R30_LONG TOKYO_R30_SHORT TOKYO_LAND CMA_LAT CMA_LON CMA_CAT CMA_WIND CMA_PRES HKO_LAT HKO_LON HKO_CAT HKO_WIND HKO_PRES NEWDELHI_LAT NEWDELHI_LON NEWDELHI_GRADE NEWDELHI_WIND NEWDELHI_PRES NEWDELHI_CI NEWDELHI_DP NEWDELHI_POCI REUNION_LAT REUNION_LON REUNION_TYPE REUNION_WIND REUNION_PRES REUNION_TNUM REUNION_CI REUNION_RMW REUNION_R34_NE REUNION_R34_SE REUNION_R34_SW REUNION_R34_NW REUNION_R50_NE REUNION_R50_SE REUNION_R50_SW REUNION_R50_NW REUNION_R64_NE REUNION_R64_SE REUNION_R64_SW REUNION_R64_NW BOM_LAT BOM_LON BOM_TYPE BOM_WIND BOM_PRES BOM_TNUM BOM_CI BOM_RMW BOM_R34_NE BOM_R34_SE BOM_R34_SW BOM_R34_NW BOM_R50_NE BOM_R50_SE BOM_R50_SW BOM_R50_NW BOM_R64_NE BOM_R64_SE BOM_R64_SW BOM_R64_NW BOM_ROCI BOM_POCI BOM_EYE BOM_POS_METHOD BOM_PRES_METHOD NADI_LAT NADI_LON NADI_CAT NADI_WIND NADI_PRES WELLINGTON_LAT WELLINGTON_LON WELLINGTON_WIND WELLINGTON_PRES DS824_LAT DS824_LON DS824_STAGE DS824_WIND DS824_PRES TD9636_LAT TD9636_LON TD9636_STAGE TD9636_WIND TD9636_PRES TD9635_LAT TD9635_LON TD9635_WIND TD9635_PRES TD9635_ROCI NEUMANN_LAT NEUMANN_LON NEUMANN_CLASS NEUMANN_WIND NEUMANN_PRES MLC_LAT MLC_LON MLC_CLASS MLC_WIND MLC_PRES USA_GUST BOM_GUST BOM_GUST_PER REUNION_GUST REUNION_GUST_PER USA_SEAHGT USA_SEARAD_NE USA_SEARAD_SE USA_SEARAD_SW USA_SEARAD_NW STORM_SPEED STORM_DIR
1947229N18115 1947 54 WP MM NOT_NAMED 1947-08-16 12:00:00 NR 18.0000 115.400 main 494 427 __________O___ -1 18.0000 115.400 2 14 313
1947229N18115 1947 54 WP MM NOT_NAMED 1947-08-16 15:00:00 NR 18.4766 114.870 main 427 365 __________P___ -1 18.4766 114.870 2 13 313
1947229N18115 1947 54 WP MM NOT_NAMED 1947-08-16 18:00:00 NR 18.9219 114.371 main 365 308 __________P___ -1 18.9219 114.371 2 12 313
1947229N18115 1947 54 WP MM NOT_NAMED 1947-08-16 21:00:00 NR 19.3061 113.936 main 305 264 __________P___ -1 19.3061 113.936 2 10 313
1947229N18115 1947 54 WP MM NOT_NAMED 1947-08-17 00:00:00 NR 19.6000 113.600 main 264 238 __________O___ -1 19.6000 113.600 2 7 313
1947229N18115 1947 54 WP MM NOT_NAMED 1947-08-17 03:00:00 NR 19.7855 113.384 main 238 224 __________P___ -1 19.7855 113.384 2 4 312
1947229N18115 1947 54 WP MM NOT_NAMED 1947-08-17 06:00:00 NR 19.8891 113.258 main 224 221 __________P___ -1 19.8891 113.258 2 3 310
1947229N18115 1947 54 WP MM NOT_NAMED 1947-08-17 09:00:00 NR 19.9482 113.178 main 221 207 __________P___ -1 19.9482 113.178 2 2 307
1947229N18115 1947 54 WP MM NOT_NAMED 1947-08-17 12:00:00 NR 20.0000 113.100 main 207 193 __________O___ -1 20.0000 113.100 2 2 306
1947229N18115 1947 54 WP MM NOT_NAMED 1947-08-17 15:00:00 NR 20.0918 112.969 main 193 175 __________P___ -1 20.0918 112.969 2 3 306
1947229N18115 1947 54 WP MM NOT_NAMED 1947-08-17 18:00:00 NR 20.1848 112.830 main 175 161 __________P___ -1 20.1848 112.830 2 3 305
1947229N18115 1947 54 WP MM NOT_NAMED 1947-08-17 21:00:00 NR 20.2855 112.675 main 161 146 __________P___ -1 20.2855 112.675 2 4 305
1947229N18115 1947 54 WP MM NOT_NAMED 1947-08-18 00:00:00 NR 20.4000 112.500 main 146 133 __________O___ -1 20.4000 112.500 3 4 305
1947229N18115 1947 54 WP MM NOT_NAMED 1947-08-18 03:00:00 NR 20.5398 112.293 main 133 103 __________P___ -1 20.5398 112.293 3 5 306
1947229N18115 1947 54 WP MM NOT_NAMED 1947-08-18 06:00:00 NR 20.6926 112.065 main 103 80 __________P___ -1 20.6926 112.065 3 5 306
1947229N18115 1947 54 WP MM NOT_NAMED 1947-08-18 09:00:00 NR 20.8491 111.830 main 80 54 __________P___ -1 20.8491 111.830 3 5 305
1947229N18115 1947 54 WP MM NOT_NAMED 1947-08-18 12:00:00 NR 21.0000 111.600 main 54 35 __________O___ -1 21.0000 111.600 4 5 305
1947229N18115 1947 54 WP MM NOT_NAMED 1947-08-18 15:00:00 NR 21.1381 111.385 main 35 15 __________P___ -1 21.1381 111.385 4 5 304
1947229N18115 1947 54 WP MM NOT_NAMED 1947-08-18 18:00:00 NR 21.2650 111.183 main 15 11 __________P___ -1 21.2650 111.183 4 4 304
1947229N18115 1947 54 WP MM NOT_NAMED 1947-08-18 21:00:00 NR 21.3845 110.989 main 11 0 __________P___ -1 21.3845 110.989 4 4 303
1947229N18115 1947 54 WP MM NOT_NAMED 1947-08-19 00:00:00 NR 21.5000 110.800 main 0 __________O___ -1 21.5000 110.800 7 4 303

デジタル台風データ・検索

IBTrACS Databaseについて

本データベースは、米国NOAAが公開する1842年以降の世界の熱帯低気圧のベストトラックデータアーカイブInternational Best Track Archive for Climate Stewardship (IBTrACS)を、ウェブで閲覧しやすい形式に変換したものです。

最終更新日:2021-12-01